Southwest Georgia Regional Airport
KABY : now visible

Airfield :











YOU CAN JOIN US ON...

 
LOGIN :

Register | Disclaimer

   EN    FR    IT 

 









Legend :    VFR   Marginal VFR   IFR   Intensive IFR   Very Intensive IFR
Visi :
Ceiling :
>= 8 km
>= 3000ft
5 to 8 km
1000 to 3000 ft
1500m to 5 km
500 to 1000 ft
800 to 1500m
200 to 500 ft
< 800m
< 200 ft
Symbols :   Thunderstorms  Fog  Heavy snow  Heavy precipitations  Wind > 20 kt






- Airport Elevation : 197 ft
- IATA code : ABY


KABY - Southwest Georgia Regional

CURRENT METAR :
  • 082053Z 10008KT 10SM BKN026 BKN031 OVC070 18/12 A3018 RMK AO2 SLP220 T01830117 56025

EXPIRED METARs :
  • 082033Z 10008KT 10SM BKN026 BKN031 OVC070 18/12 A3019 RMK AO2 T01830117
  • 081953Z 09011KT 10SM FEW075 18/11 A3019 RMK AO2 SLP223 T01830111
  • 081853Z 07006KT 10SM BKN035 BKN080 OVC100 17/11 A3023 RMK AO2 SLP236 T01670106

TAF KABY
Valid from the 08 at 19:00 until the 09 at 18:00 UTC


081912Z 0819/0918 09008KT P6SM BKN040
FM082100 09007KT P6SM OVC050
FM090600 12007KT P6SM OVC010
FM091500 19011KT P6SM OVC025



MET'MAP, your aeronautical weather chart ! - Copyright ORBIFLY December 2007 - Disclaimer

ORBIFLY MET'MAP TEAM :

Programming & Development : Alexandra Zaïnal
Concept & original design : Baudouin d'Aumeries
Assistance for programming : Marc-Olivier Méhu
Technical & hardware support : Manuel Goepfert

Contact : metmap@orbifly.com




SOURCES & CREDITS :

   NOAA       Earth
Advisory